createdAt,value
2018-07-11T21:34:41.017Z,16.30
2018-07-11T21:37:09.789Z,16.60
2018-07-11T21:39:38.473Z,16.60
2018-07-11T21:42:07.197Z,16.50
2018-07-11T21:44:35.898Z,16.50
2018-07-11T21:47:04.518Z,16.40
2018-07-11T21:49:33.255Z,16.40
2018-07-11T21:52:01.898Z,16.50
2018-07-11T21:54:30.551Z,16.40
2018-07-11T21:56:59.213Z,16.30
2018-07-11T21:59:27.864Z,16.30
2018-07-11T22:01:56.582Z,16.40
2018-07-11T22:04:25.251Z,16.30
2018-07-11T22:06:54.391Z,16.20
2018-07-11T22:09:23.038Z,16.30
2018-07-11T22:11:51.719Z,16.20
2018-07-11T22:14:20.476Z,16.20
2018-07-11T22:16:49.165Z,16.10
2018-07-11T22:19:17.859Z,16.10
2018-07-11T22:21:45.254Z,16.00
2018-07-11T22:24:12.653Z,16.00
2018-07-11T22:26:40.047Z,16.00
2018-07-11T22:29:07.442Z,16.00
2018-07-11T22:31:34.867Z,16.00
2018-07-11T22:34:02.249Z,16.00
2018-07-11T22:36:29.678Z,15.90
2018-07-11T22:38:57.055Z,15.90
2018-07-11T22:41:24.469Z,15.80
2018-07-11T22:43:51.858Z,15.70
2018-07-11T22:46:19.269Z,15.70
2018-07-11T22:48:46.674Z,15.60
2018-07-11T22:51:14.100Z,15.60
2018-07-11T22:53:41.541Z,15.60
2018-07-11T22:56:08.970Z,15.60
2018-07-11T22:58:36.381Z,15.60
2018-07-11T23:01:03.798Z,15.60
2018-07-11T23:03:31.185Z,15.70
2018-07-11T23:05:58.604Z,15.70
2018-07-11T23:08:26.001Z,15.80
2018-07-11T23:10:53.425Z,15.90
2018-07-11T23:13:20.821Z,15.90
2018-07-11T23:15:48.252Z,15.90
2018-07-11T23:18:15.666Z,16.10
2018-07-11T23:20:43.104Z,16.10
2018-07-11T23:23:10.505Z,16.20
2018-07-11T23:25:37.934Z,16.20
2018-07-11T23:28:05.342Z,16.30
2018-07-11T23:30:32.762Z,16.30
2018-07-11T23:33:00.166Z,16.30
2018-07-11T23:35:27.604Z,16.30
2018-07-11T23:37:54.998Z,16.50
2018-07-11T23:40:22.460Z,16.40
2018-07-11T23:42:49.860Z,16.40
2018-07-11T23:45:17.282Z,16.40
2018-07-11T23:47:44.690Z,16.30
2018-07-11T23:50:12.108Z,16.40
2018-07-11T23:52:39.558Z,16.50
2018-07-11T23:55:06.981Z,16.40
2018-07-11T23:57:34.365Z,16.30
